Time;durP1;ratioP1;P1;durP2;ratioP2;P2;SDS_P1;SDS_P2;PMS_P1;PMS_P2;Temp;Humidity;BMP_temperature;BMP_pressure;BME280_temperature;BME280_humidity;BME280_pressure;Samples;Min_cycle;Max_cycle;Signal;HPM_P1;HPM_P2
2023/05/01 00:00:52;;;;;;;3.70;2.80;;;;;;;;;;5050949;28;20501;-68
2023/05/01 00:03:19;;;;;;;4.73;2.07;;;;;;;;;;5051919;28;20461;-68
2023/05/01 00:05:47;;;;;;;2.80;1.87;;;;;;;;;;5051411;28;20450;-68
2023/05/01 00:08:14;;;;;;;4.03;3.10;;;;;;;;;;5051463;28;20453;-68
2023/05/01 00:10:41;;;;;;;5.10;2.23;;;;;;;;;;5050858;28;20517;-69
2023/05/01 00:13:09;;;;;;;3.63;2.47;;;;;;;;;;5049390;28;20829;-69
2023/05/01 00:15:36;;;;;;;3.50;2.17;;;;;;;;;;5051193;28;20871;-68
2023/05/01 00:18:05;;;;;;;2.90;2.10;;;;;;;;;;5047805;28;20454;-68
2023/05/01 00:20:32;;;;;;;3.80;2.20;;;;;;;;;;5051151;28;20939;-69
2023/05/01 00:22:59;;;;;;;4.27;2.30;;;;;;;;;;5050970;28;20443;-68
2023/05/01 00:25:26;;;;;;;4.30;2.50;;;;;;;;;;5051432;28;20458;-68
2023/05/01 00:27:53;;;;;;;4.93;2.60;;;;;;;;;;5050704;28;20455;-68
2023/05/01 00:30:20;;;;;;;3.33;2.30;;;;;;;;;;5050823;28;21043;-68
2023/05/01 00:32:47;;;;;;;3.80;2.23;;;;;;;;;;5050860;28;20458;-68
2023/05/01 00:35:16;;;;;;;2.57;2.30;;;;;;;;;;5051087;28;20825;-68
2023/05/01 00:37:43;;;;;;;12.53;2.33;;;;;;;;;;5050418;28;20550;-68
2023/05/01 00:40:11;;;;;;;5.60;2.37;;;;;;;;;;5050261;28;20484;-68
2023/05/01 00:42:39;;;;;;;3.90;3.10;;;;;;;;;;5050914;28;20962;-68
2023/05/01 00:45:07;;;;;;;3.43;1.90;;;;;;;;;;5051306;28;20512;-68
2023/05/01 00:47:36;;;;;;;5.17;3.07;;;;;;;;;;5050660;28;20456;-68
2023/05/01 00:50:03;;;;;;;3.10;2.20;;;;;;;;;;5050807;28;21018;-68
2023/05/01 00:52:31;;;;;;;3.47;2.70;;;;;;;;;;5051169;28;20458;-68
2023/05/01 00:54:59;;;;;;;3.77;2.10;;;;;;;;;;5050812;28;20474;-69
2023/05/01 00:57:26;;;;;;;3.90;2.83;;;;;;;;;;5050895;28;20513;-69
2023/05/01 00:59:53;;;;;;;2.67;1.90;;;;;;;;;;5049378;28;20701;-68
2023/05/01 01:02:20;;;;;;;5.00;2.63;;;;;;;;;;5050609;28;20450;-68
2023/05/01 01:04:48;;;;;;;5.53;2.07;;;;;;;;;;5050501;28;20446;-68
2023/05/01 01:07:20;;;;;;;4.10;2.50;;;;;;;;;;5050768;28;20458;-68
2023/05/01 01:09:52;;;;;;;3.10;1.93;;;;;;;;;;5049440;28;20872;-68
2023/05/01 01:12:24;;;;;;;2.37;1.73;;;;;;;;;;5050550;28;20784;-68
2023/05/01 01:14:56;;;;;;;3.60;2.30;;;;;;;;;;5049571;28;20461;-68
2023/05/01 01:17:29;;;;;;;2.83;2.10;;;;;;;;;;5050405;28;20705;-68
2023/05/01 01:20:14;;;;;;;4.63;2.00;;;;;;;;;;5049952;28;20533;-68
2023/05/01 01:22:44;;;;;;;2.50;1.93;;;;;;;;;;5049648;28;20503;-68
2023/05/01 01:25:26;;;;;;;2.60;2.40;;;;;;;;;;5049951;28;20460;-69
2023/05/01 01:28:05;;;;;;;4.40;2.30;;;;;;;;;;5049491;28;20459;-68
2023/05/01 01:30:40;;;;;;;2.73;2.00;;;;;;;;;;5050593;28;20448;-69
2023/05/01 01:33:32;;;;;;;5.10;2.60;;;;;;;;;;5042454;28;20438;-69
2023/05/01 01:36:03;;;;;;;2.37;1.60;;;;;;;;;;5040120;28;20569;-69
2023/05/01 01:38:36;;;;;;;3.83;2.23;;;;;;;;;;5050320;28;20813;-70
2023/05/01 01:41:08;;;;;;;4.40;2.53;;;;;;;;;;5050226;28;21012;-69
2023/05/01 01:43:38;;;;;;;4.13;2.70;;;;;;;;;;5049851;28;20442;-68
2023/05/01 01:46:07;;;;;;;3.63;1.97;;;;;;;;;;5050109;28;20454;-69
2023/05/01 01:48:35;;;;;;;4.57;2.80;;;;;;;;;;5049254;28;20553;-69
2023/05/01 01:51:07;;;;;;;3.70;1.87;;;;;;;;;;5050511;28;20806;-69
2023/05/01 01:53:35;;;;;;;1.93;1.67;;;;;;;;;;5049173;28;20458;-69
2023/05/01 01:56:03;;;;;;;3.00;2.30;;;;;;;;;;5049508;28;20492;-69
2023/05/01 01:58:30;;;;;;;2.40;1.73;;;;;;;;;;5050044;28;20461;-69
2023/05/01 02:00:58;;;;;;;4.20;2.37;;;;;;;;;;5049064;28;20454;-69
2023/05/01 02:03:26;;;;;;;2.60;1.80;;;;;;;;;;5036914;28;20450;-69
2023/05/01 02:05:55;;;;;;;3.93;2.53;;;;;;;;;;5049117;28;20950;-69
2023/05/01 02:08:24;;;;;;;3.00;1.87;;;;;;;;;;5049624;28;20508;-69
2023/05/01 02:10:56;;;;;;;3.67;2.00;;;;;;;;;;5048654;28;20973;-69
2023/05/01 02:13:24;;;;;;;2.83;1.80;;;;;;;;;;5050288;28;20882;-69
2023/05/01 02:15:52;;;;;;;3.40;2.30;;;;;;;;;;5049298;28;20446;-69
2023/05/01 02:18:19;;;;;;;3.00;2.10;;;;;;;;;;5048318;28;20442;-69
2023/05/01 02:20:47;;;;;;;3.60;2.03;;;;;;;;;;5049509;28;20450;-69
2023/05/01 02:23:14;;;;;;;3.23;2.53;;;;;;;;;;5053063;28;20521;-69
2023/05/01 02:25:44;;;;;;;3.20;2.30;;;;;;;;;;5052706;28;20994;-69
2023/05/01 02:28:13;;;;;;;5.00;3.00;;;;;;;;;;5053599;28;20955;-69
2023/05/01 02:30:40;;;;;;;3.83;2.27;;;;;;;;;;5052872;28;20476;-69
2023/05/01 02:33:07;;;;;;;3.10;2.30;;;;;;;;;;5053917;28;20442;-69
2023/05/01 02:35:39;;;;;;;3.70;2.40;;;;;;;;;;5053316;28;20461;-69
2023/05/01 02:38:07;;;;;;;3.90;2.20;;;;;;;;;;5053650;28;20810;-69
2023/05/01 02:40:35;;;;;;;3.77;1.93;;;;;;;;;;5053278;28;20489;-68
2023/05/01 02:43:05;;;;;;;3.43;2.20;;;;;;;;;;5054212;28;20529;-68
2023/05/01 02:45:34;;;;;;;2.93;2.00;;;;;;;;;;5054013;28;20939;-68
2023/05/01 02:48:02;;;;;;;3.87;2.17;;;;;;;;;;5058516;28;20469;-68
2023/05/01 02:50:30;;;;;;;2.47;2.27;;;;;;;;;;5064034;28;20456;-68
2023/05/01 02:52:57;;;;;;;4.00;2.30;;;;;;;;;;5063687;28;20477;-70
2023/05/01 02:55:24;;;;;;;3.40;2.40;;;;;;;;;;5049835;28;20477;-69
2023/05/01 02:57:51;;;;;;;3.20;2.57;;;;;;;;;;5061890;28;20493;-69
2023/05/01 03:00:20;;;;;;;5.33;2.13;;;;;;;;;;5061191;28;20447;-69
2023/05/01 03:02:47;;;;;;;3.73;1.80;;;;;;;;;;5058855;28;20450;-68
2023/05/01 03:05:14;;;;;;;4.40;2.63;;;;;;;;;;5055239;28;20450;-68
2023/05/01 03:07:41;;;;;;;3.60;3.03;;;;;;;;;;5052184;28;21320;-69
2023/05/01 03:10:08;;;;;;;3.77;2.03;;;;;;;;;;5052339;28;20439;-68
2023/05/01 03:12:35;;;;;;;3.23;2.30;;;;;;;;;;5051571;28;20454;-68
2023/05/01 03:15:03;;;;;;;6.20;3.10;;;;;;;;;;5052745;28;20454;-68
2023/05/01 03:17:33;;;;;;;2.63;1.77;;;;;;;;;;5052954;28;20474;-68
2023/05/01 03:20:00;;;;;;;3.73;2.23;;;;;;;;;;5052888;28;20442;-68
2023/05/01 03:22:31;;;;;;;3.60;2.20;;;;;;;;;;5053094;28;20446;-68
2023/05/01 03:24:59;;;;;;;3.43;1.97;;;;;;;;;;5053090;28;20497;-68
2023/05/01 03:27:26;;;;;;;2.93;2.27;;;;;;;;;;5052706;28;20454;-68
2023/05/01 03:29:53;;;;;;;3.40;2.23;;;;;;;;;;5052123;28;20802;-68
2023/05/01 03:32:21;;;;;;;3.63;2.43;;;;;;;;;;5052639;28;20461;-68
2023/05/01 03:34:49;;;;;;;3.67;2.33;;;;;;;;;;5052396;28;20485;-68
2023/05/01 03:37:17;;;;;;;3.50;2.40;;;;;;;;;;5052741;28;20912;-68
2023/05/01 03:39:44;;;;;;;2.73;2.13;;;;;;;;;;5051819;28;20446;-68
2023/05/01 03:42:11;;;;;;;4.03;2.10;;;;;;;;;;5052637;28;20442;-68
2023/05/01 03:44:38;;;;;;;3.73;2.43;;;;;;;;;;5052313;28;20446;-68
2023/05/01 03:47:05;;;;;;;2.87;2.07;;;;;;;;;;5051776;28;20458;-68
2023/05/01 03:49:32;;;;;;;3.37;2.70;;;;;;;;;;5050505;28;20444;-68
2023/05/01 03:52:00;;;;;;;3.27;2.37;;;;;;;;;;5051639;28;20537;-68
2023/05/01 03:54:28;;;;;;;3.23;2.63;;;;;;;;;;5051580;28;20959;-68
2023/05/01 03:56:55;;;;;;;5.00;2.43;;;;;;;;;;5040539;28;20676;-68
2023/05/01 03:59:22;;;;;;;3.37;2.20;;;;;;;;;;5051453;28;20955;-68
2023/05/01 04:01:49;;;;;;;3.30;2.57;;;;;;;;;;5051018;28;20553;-68
2023/05/01 04:04:16;;;;;;;4.73;2.63;;;;;;;;;;5051008;28;20450;-68
2023/05/01 04:06:43;;;;;;;3.23;2.53;;;;;;;;;;5050840;28;20473;-68
2023/05/01 04:09:12;;;;;;;3.40;2.57;;;;;;;;;;5051352;28;20464;-68
2023/05/01 04:11:39;;;;;;;3.00;1.87;;;;;;;;;;5050134;28;20470;-68
2023/05/01 04:14:06;;;;;;;3.17;2.30;;;;;;;;;;5050960;28;20447;-69
2023/05/01 04:16:33;;;;;;;2.20;1.50;;;;;;;;;;5051268;28;20458;-68
2023/05/01 04:19:00;;;;;;;3.47;2.43;;;;;;;;;;5049984;28;20446;-69
2023/05/01 04:21:27;;;;;;;3.40;2.40;;;;;;;;;;5051492;28;20446;-68
2023/05/01 04:23:54;;;;;;;2.90;2.23;;;;;;;;;;5049789;28;20451;-68
2023/05/01 04:26:23;;;;;;;3.60;2.53;;;;;;;;;;5051350;28;20454;-69
2023/05/01 04:28:50;;;;;;;3.33;2.47;;;;;;;;;;5049700;28;20450;-68
2023/05/01 04:31:17;;;;;;;6.93;2.57;;;;;;;;;;5050496;28;20454;-69
2023/05/01 04:33:44;;;;;;;3.83;2.87;;;;;;;;;;5049131;28;20454;-68
2023/05/01 04:36:12;;;;;;;3.93;3.37;;;;;;;;;;5049919;28;20537;-69
2023/05/01 04:38:39;;;;;;;3.03;2.73;;;;;;;;;;5049401;28;20478;-68
2023/05/01 04:41:06;;;;;;;3.10;2.47;;;;;;;;;;5050258;28;20446;-68
2023/05/01 04:43:34;;;;;;;7.33;3.07;;;;;;;;;;5050615;28;20569;-68
2023/05/01 04:46:01;;;;;;;4.37;2.87;;;;;;;;;;5050713;28;20449;-68
2023/05/01 04:48:29;;;;;;;4.00;2.43;;;;;;;;;;5050899;28;20458;-68
2023/05/01 04:50:56;;;;;;;4.20;2.70;;;;;;;;;;5050213;28;20850;-68
2023/05/01 04:53:23;;;;;;;3.30;2.13;;;;;;;;;;5050979;28;20465;-68
2023/05/01 04:55:51;;;;;;;3.60;2.10;;;;;;;;;;5049698;28;20998;-68
2023/05/01 04:58:18;;;;;;;5.40;2.80;;;;;;;;;;5050584;28;20509;-68
2023/05/01 05:00:46;;;;;;;3.67;2.73;;;;;;;;;;5049935;28;20928;-68
2023/05/01 05:03:14;;;;;;;3.10;2.17;;;;;;;;;;5050731;28;20458;-69
2023/05/01 05:05:41;;;;;;;4.80;2.67;;;;;;;;;;5050062;28;20453;-68
2023/05/01 05:08:09;;;;;;;4.00;2.70;;;;;;;;;;5049926;28;20836;-68
2023/05/01 05:10:36;;;;;;;3.67;2.10;;;;;;;;;;5050186;28;20534;-68
2023/05/01 05:13:03;;;;;;;3.03;2.13;;;;;;;;;;5050576;28;20458;-69
2023/05/01 05:15:30;;;;;;;5.50;3.27;;;;;;;;;;5051126;28;20473;-68
2023/05/01 05:17:59;;;;;;;4.17;2.43;;;;;;;;;;5049634;28;20482;-68
2023/05/01 05:20:26;;;;;;;5.13;2.70;;;;;;;;;;5050315;28;20963;-68
2023/05/01 05:22:53;;;;;;;4.37;2.63;;;;;;;;;;5049539;28;20656;-68
2023/05/01 05:25:20;;;;;;;3.83;3.03;;;;;;;;;;5050464;28;20919;-69
2023/05/01 05:27:48;;;;;;;4.47;2.53;;;;;;;;;;5047627;28;20457;-68
2023/05/01 05:30:15;;;;;;;3.10;2.37;;;;;;;;;;5050791;28;20547;-68
2023/05/01 05:32:43;;;;;;;2.93;1.97;;;;;;;;;;5050042;28;20442;-68
2023/05/01 05:35:11;;;;;;;3.57;2.27;;;;;;;;;;5050741;28;20836;-69
2023/05/01 05:37:38;;;;;;;5.37;3.23;;;;;;;;;;5050533;28;20482;-68
2023/05/01 05:40:06;;;;;;;4.77;2.67;;;;;;;;;;5050920;28;20478;-68
2023/05/01 05:42:33;;;;;;;3.57;2.63;;;;;;;;;;5050134;28;20454;-68
2023/05/01 05:45:01;;;;;;;5.20;2.30;;;;;;;;;;5050802;28;20512;-69
2023/05/01 05:47:28;;;;;;;4.73;3.10;;;;;;;;;;5051029;28;20450;-68
2023/05/01 05:49:55;;;;;;;3.30;2.27;;;;;;;;;;5049567;28;20943;-69
2023/05/01 05:52:23;;;;;;;4.80;2.70;;;;;;;;;;5050140;28;20520;-69
2023/05/01 05:54:50;;;;;;;2.90;1.73;;;;;;;;;;5050133;28;21617;-68
2023/05/01 05:57:18;;;;;;;4.50;3.10;;;;;;;;;;5051437;28;20484;-69
2023/05/01 05:59:45;;;;;;;3.70;2.10;;;;;;;;;;5052672;28;20517;-68
2023/05/01 06:02:12;;;;;;;3.80;2.27;;;;;;;;;;5053515;28;20446;-69
2023/05/01 06:04:39;;;;;;;4.43;3.10;;;;;;;;;;5052300;28;20448;-68
2023/05/01 06:07:06;;;;;;;3.47;2.47;;;;;;;;;;5054193;28;20915;-69
2023/05/01 06:09:35;;;;;;;3.27;2.27;;;;;;;;;;5055555;28;20451;-68
2023/05/01 06:12:04;;;;;;;3.77;2.40;;;;;;;;;;5054345;28;20442;-70
2023/05/01 06:14:31;;;;;;;5.10;3.33;;;;;;;;;;5054203;28;20537;-69
2023/05/01 06:16:58;;;;;;;3.73;2.60;;;;;;;;;;5044373;28;20453;-69
2023/05/01 06:19:25;;;;;;;3.30;2.73;;;;;;;;;;5053727;28;20484;-69
2023/05/01 06:21:52;;;;;;;4.47;2.67;;;;;;;;;;5052629;28;20450;-69
2023/05/01 06:24:19;;;;;;;3.37;2.27;;;;;;;;;;5053085;28;20800;-69
2023/05/01 06:26:48;;;;;;;6.80;3.03;;;;;;;;;;5053488;28;20446;-69
2023/05/01 06:29:15;;;;;;;5.10;3.20;;;;;;;;;;5053294;28;20473;-69
2023/05/01 06:31:42;;;;;;;4.53;3.07;;;;;;;;;;5052749;28;20458;-69
2023/05/01 06:34:09;;;;;;;4.60;3.07;;;;;;;;;;5053934;28;20813;-69
2023/05/01 06:36:36;;;;;;;4.93;2.40;;;;;;;;;;5053110;28;20453;-68
2023/05/01 06:39:03;;;;;;;3.67;2.90;;;;;;;;;;5052984;28;20887;-68
2023/05/01 06:41:31;;;;;;;3.83;2.90;;;;;;;;;;5053507;28;20942;-69
2023/05/01 06:44:00;;;;;;;3.70;2.37;;;;;;;;;;5052334;28;20454;-69
2023/05/01 06:46:27;;;;;;;6.03;3.17;;;;;;;;;;5049945;28;20449;-69
2023/05/01 06:48:54;;;;;;;4.37;2.60;;;;;;;;;;5052127;28;20446;-68
2023/05/01 06:51:21;;;;;;;3.60;2.90;;;;;;;;;;5053704;28;20485;-69
2023/05/01 06:53:48;;;;;;;4.53;2.77;;;;;;;;;;5052328;28;20454;-69
2023/05/01 06:56:15;;;;;;;4.33;3.27;;;18.60;99.90;;;;;;5052966;28;20935;-69
2023/05/01 06:58:41;;;;;;;4.00;3.43;;;12.20;1.00;;;;;;5052525;28;20484;-68
2023/05/01 07:01:10;;;;;;;5.70;3.00;;;12.30;99.90;;;;;;5053890;28;20450;-69
2023/05/01 07:03:36;;;;;;;3.73;2.63;;;12.30;99.90;;;;;;5053195;28;20442;-68
2023/05/01 07:06:03;;;;;;;4.07;2.87;;;12.40;1.00;;;;;;5054183;28;20450;-68
2023/05/01 07:08:30;;;;;;;3.10;2.33;;;12.40;99.90;;;;;;5059519;28;20457;-69
2023/05/01 07:10:57;;;;;;;6.50;3.00;;;12.60;99.90;;;;;;5061813;28;20450;-69
2023/05/01 07:13:24;;;;;;;5.00;3.00;;;12.70;1.00;;;;;;5064245;28;20447;-70
2023/05/01 07:15:51;;;;;;;4.10;2.90;;;12.70;1.00;;;;;;5063415;28;20457;-67
2023/05/01 07:18:19;;;;;;;4.00;2.37;;;12.70;1.00;;;;;;5061354;28;20492;-69
2023/05/01 07:20:48;;;;;;;3.70;2.63;;;12.70;99.90;;;;;;5059085;28;20542;-68
2023/05/01 07:23:15;;;;;;;4.07;2.37;;;12.80;99.90;;;;;;5057389;28;20481;-67
2023/05/01 07:25:44;;;;;;;4.03;2.93;;;12.50;99.90;;;;;;5051869;28;20449;-67
2023/05/01 07:28:10;;;;;;;3.30;2.53;;;12.50;99.90;;;;;;5051812;28;20453;-67
2023/05/01 07:30:37;;;;;;;2.80;2.07;;;12.50;99.90;;;;;;5052001;28;20452;-67
2023/05/01 07:33:05;;;;;;;3.80;2.33;;;12.60;99.90;;;;;;5052822;28;20454;-67
2023/05/01 07:35:33;;;;;;;3.37;2.30;;;12.70;99.90;;;;;;5052898;28;20502;-67
2023/05/01 07:38:00;;;;;;;3.07;2.27;;;12.90;99.90;;;;;;5052594;28;20569;-69
2023/05/01 07:40:27;;;;;;;4.20;2.83;;;13.10;32.20;;;;;;5051767;28;20617;-71
2023/05/01 07:42:54;;;;;;;3.93;2.60;;;13.10;1.00;;;;;;5051321;28;20697;-68
2023/05/01 07:45:20;;;;;;;3.27;2.20;;;13.20;1.00;;;;;;5051948;28;20446;-71
2023/05/01 07:47:48;;;;;;;2.73;2.13;;;13.20;1.00;;;;;;5048495;28;20882;-67
2023/05/01 07:50:15;;;;;;;3.47;2.70;;;13.40;1.00;;;;;;5048539;28;20455;-68
2023/05/01 07:52:44;;;;;;;4.20;2.40;;;13.30;1.00;;;;;;5048514;28;20450;-68
2023/05/01 07:55:11;;;;;;;3.40;2.23;;;13.20;1.00;;;;;;5049653;28;21174;-68
2023/05/01 07:57:38;;;;;;;4.67;3.47;;;13.20;1.00;;;;;;5048814;28;20458;-68
2023/05/01 08:00:06;;;;;;;2.87;2.07;;;13.10;1.00;;;;;;5049522;28;20461;-68
2023/05/01 08:02:33;;;;;;;3.40;2.37;;;13.00;1.00;;;;;;5049688;28;20489;-68
2023/05/01 08:05:01;;;;;;;3.83;2.73;;;13.10;1.00;;;;;;5049560;28;20465;-68
2023/05/01 08:07:28;;;;;;;3.80;2.60;;;13.20;1.00;;;;;;5047320;28;20454;-69
2023/05/01 08:09:56;;;;;;;4.90;2.93;;;13.40;1.00;;;;;;5049293;28;20450;-68
2023/05/01 08:12:23;;;;;;;5.53;3.10;;;13.50;1.00;;;;;;5049190;28;20872;-69
2023/05/01 08:14:50;;;;;;;4.07;2.47;;;13.60;1.00;;;;;;5048407;28;20462;-68
2023/05/01 08:17:17;;;;;;;2.97;2.40;;;13.60;1.00;;;;;;5048913;28;20811;-69
2023/05/01 08:19:44;;;;;;;2.77;2.40;;;13.60;1.00;;;;;;5047967;28;20575;-66
2023/05/01 08:22:11;;;;;;;9.10;2.80;;;13.70;1.00;;;;;;5049059;28;20462;-67
2023/05/01 08:24:38;;;;;;;3.60;2.40;;;13.90;1.00;;;;;;5046736;28;20454;-67
2023/05/01 08:27:06;;;;;;;3.30;2.43;;;13.90;1.00;;;;;;5048374;28;20475;-68
2023/05/01 08:29:33;;;;;;;4.17;2.80;;;;;;;;;;5048856;28;20931;-67
2023/05/01 08:32:01;;;;;;;4.37;2.67;;;;;;;;;;5049126;28;20442;-67
2023/05/01 08:34:28;;;;;;;4.47;2.40;;;;;;;;;;5047704;28;20542;-67
2023/05/01 08:36:55;;;;;;;4.83;2.33;;;;;;;;;;5047519;28;20470;-68
2023/05/01 08:39:22;;;;;;;3.30;2.10;;;;;;;;;;5048557;28;20475;-68
2023/05/01 08:41:49;;;;;;;4.97;2.23;;;;;;;;;;5048329;28;21763;-68
2023/05/01 08:44:18;;;;;;;2.90;1.90;;;;;;;;;;5049210;28;20469;-68
2023/05/01 08:46:47;;;;;;;3.43;2.60;;;;;;;;;;5048542;28;20819;-68
2023/05/01 08:49:15;;;;;;;3.90;2.50;;;;;;;;;;5047618;28;20511;-67
2023/05/01 08:51:44;;;;;;;3.10;2.50;;;;;;;;;;5048183;28;20453;-67
2023/05/01 08:54:12;;;;;;;4.20;2.30;;;;;;;;;;5047882;28;20496;-66
2023/05/01 08:56:39;;;;;;;2.47;2.13;;;;;;;;;;5047485;28;20446;-67
2023/05/01 08:59:10;;;;;;;3.00;2.30;;;;;;;;;;5047789;28;20525;-67
2023/05/01 09:01:39;;;;;;;3.40;2.07;;;;;;;;;;5045982;28;20516;-66
2023/05/01 09:04:07;;;;;;;3.43;2.20;;;;;;;;;;5047344;28;20455;-67
2023/05/01 09:06:35;;;;;;;2.73;2.20;;;;;;;;;;5046168;28;20450;-68
2023/05/01 09:09:02;;;;;;;4.33;2.30;;;;;;;;;;5047479;28;20451;-68
2023/05/01 09:11:29;;;;;;;2.80;2.20;;;;;;;;;;5047566;28;20454;-67
2023/05/01 09:13:57;;;;;;;3.83;2.67;;;;;;;;;;5048046;28;20447;-68
2023/05/01 09:16:24;;;;;;;3.00;2.63;;;;;;;;;;5048343;28;20473;-69
2023/05/01 09:18:52;;;;;;;3.30;2.50;;;;;;;;;;5047392;28;20486;-68
2023/05/01 09:21:19;;;;;;;6.00;2.60;;;;;;;;;;5047958;28;20458;-67
2023/05/01 09:23:46;;;;;;;3.30;2.30;;;;;;;;;;5047598;28;21194;-68
2023/05/01 09:26:13;;;;;;;3.60;2.73;;;;;;;;;;5047890;28;20453;-68
2023/05/01 09:28:41;;;;;;;6.00;3.60;;;;;;;;;;5047289;28;20961;-66
2023/05/01 09:31:21;;;;;;;3.27;2.23;;;;;;;;;;5047932;28;20455;-69
2023/05/01 09:33:59;;;;;;;2.77;2.00;;;;;;;;;;5047160;28;20536;-67
2023/05/01 09:36:28;;;;;;;2.70;2.30;;;;;;;;;;5040974;28;20446;-67
2023/05/01 09:38:55;;;;;;;3.50;2.27;;;;;;;;;;5046913;28;20482;-67
2023/05/01 09:41:23;;;;;;;3.30;2.27;;;;;;;;;;5048363;28;20451;-68
2023/05/01 09:43:50;;;;;;;3.53;2.07;;;;;;;;;;5047348;28;20459;-67
2023/05/01 09:46:18;;;;;;;3.20;1.97;;;;;;;;;;5045426;28;20447;-68
2023/05/01 09:48:55;;;;;;;5.03;2.67;;;;;;;;;;5048547;28;20446;-68
2023/05/01 09:51:25;;;;;;;3.30;2.80;;;;;;;;;;5050025;28;20576;-67
2023/05/01 09:53:53;;;;;;;3.57;2.67;;;;;;;;;;5047987;28;20971;-68
2023/05/01 09:56:20;;;;;;;4.00;3.53;;;;;;;;;;5045449;28;20431;-68
2023/05/01 09:58:48;;;;;;;6.47;3.00;;;;;;;;;;5048889;28;20521;-67
2023/05/01 10:01:15;;;;;;;3.63;2.37;;;;;;;;;;5050046;28;20470;-68
2023/05/01 10:03:43;;;;;;;4.30;2.90;;;;;;;;;;5048221;28;20823;-68
2023/05/01 10:06:11;;;;;;;4.03;3.30;;;;;;;;;;5046447;28;20540;-68
2023/05/01 10:08:46;;;;;;;3.43;2.87;;;;;;;;;;5046786;28;20485;-67
2023/05/01 10:11:13;;;;;;;5.33;3.83;;;;;;;;;;5047563;28;20453;-67
2023/05/01 10:13:40;;;;;;;7.10;3.30;;;;;;;;;;5049557;28;20817;-67
2023/05/01 10:16:09;;;;;;;5.63;2.87;;;;;;;;;;5049945;28;20442;-67
2023/05/01 10:18:36;;;;;;;5.37;4.07;;;;;;;;;;5048366;28;20501;-67
2023/05/01 10:21:04;;;;;;;4.83;3.03;;;;;;;;;;5050000;28;20481;-70
2023/05/01 10:23:32;;;;;;;3.40;3.00;;;;;;;;;;5049787;28;20516;-67
2023/05/01 10:26:01;;;;;;;3.40;2.67;;;;;;;;;;5047078;28;20450;-68
2023/05/01 10:28:29;;;;;;;3.30;2.80;;;;;;;;;;5049775;28;20560;-67
2023/05/01 10:30:58;;;;;;;4.30;3.00;;;;;;;;;;5049408;28;20492;-72
2023/05/01 10:33:26;;;;;;;3.90;3.27;;;;;;;;;;5049942;28;20508;-69
2023/05/01 10:35:56;;;;;;;3.50;3.00;;;;;;;;;;5049724;28;21200;-68
2023/05/01 10:38:26;;;;;;;3.70;2.90;;;;;;;;;;5061794;28;20468;-69
2023/05/01 10:40:53;;;;;;;5.80;3.40;;;;;;;;;;5049582;28;20446;-69
2023/05/01 10:43:26;;;;;;;4.80;3.30;;;;;;;;;;5051995;28;20548;-68
2023/05/01 10:45:54;;;;;;;3.57;3.00;;;;;;;;;;5044314;28;20489;-67
2023/05/01 10:48:36;;;;;;;3.50;2.60;;;;;;;;;;5052856;28;20449;-67
2023/05/01 10:51:10;;;;;;;4.67;3.33;;;;;;;;;;5044940;28;20485;-69
2023/05/01 10:53:37;;;;;;;5.30;2.90;;;;;;;;;;5051851;28;20540;-69
2023/05/01 10:56:05;;;;;;;5.10;3.93;;;;;;;;;;5052986;28;20474;-68
2023/05/01 10:58:51;;;;;;;3.87;3.13;;;;;;;;;;5052789;28;20450;-69
2023/05/01 11:01:32;;;;;;;3.87;3.43;;;;;;;;;;5053229;28;20504;-70
2023/05/01 11:04:00;;;;;;;4.23;3.83;;;;;;;;;;5054537;28;20457;-70
2023/05/01 11:06:27;;;;;;;4.80;4.10;;;;;;;;;;5054905;28;20447;-68
2023/05/01 11:08:55;;;;;;;5.00;3.20;;;;;;;;;;5052376;28;20446;-69
2023/05/01 11:11:41;;;;;;;4.33;3.00;;;;;;;;;;5052718;28;20450;-69
2023/05/01 11:14:09;;;;;;;3.73;3.00;;;;;;;;;;5052594;28;20454;-68
2023/05/01 11:16:46;;;;;;;5.20;3.90;;;;;;;;;;5051005;28;20456;-68
2023/05/01 11:19:28;;;;;;;3.73;3.07;;;;;;;;;;5052922;28;20531;-69
2023/05/01 11:21:56;;;;;;;4.73;3.77;;;;;;;;;;5052088;28;20450;-68
2023/05/01 11:24:31;;;;;;;5.00;3.10;;;;;;;;;;5053231;28;20458;-68
2023/05/01 11:27:00;;;;;;;3.60;3.20;;;;;;;;;;5053136;28;20450;-69
2023/05/01 11:29:31;;;;;;;4.30;3.23;;;;;;;;;;5052497;28;20458;-69
2023/05/01 11:32:00;;;;;;;4.40;3.37;;;;;;;;;;5053371;28;20446;-68
2023/05/01 11:34:27;;;;;;;3.50;3.07;;;;;;;;;;5053117;28;20442;-68
2023/05/01 11:36:55;;;;;;;4.67;3.20;;;;;;;;;;5052235;28;20451;-68
2023/05/01 11:39:22;;;;;;;3.57;3.10;;;;;;;;;;5052431;28;20489;-68
2023/05/01 11:41:49;;;;;;;4.80;3.60;;;;;;;;;;5052047;28;20446;-69
2023/05/01 11:44:17;;;;;;;4.40;3.43;;;;;;;;;;5052668;28;20455;-68
2023/05/01 11:46:44;;;;;;;4.37;3.03;;;;;;;;;;5052205;28;20447;-68
2023/05/01 11:49:13;;;;;;;3.60;3.27;;;;;;;;;;5052479;28;20954;-69
2023/05/01 11:51:40;;;;;;;4.77;3.60;;;;;;;;;;5051599;28;20821;-68
2023/05/01 11:54:08;;;;;;;3.77;3.00;;;;;;;;;;5052293;28;20478;-68
2023/05/01 11:56:35;;;;;;;5.20;3.40;;;;;;;;;;5051604;28;20568;-68
2023/05/01 11:59:11;;;;;;;3.50;3.10;;;;;;;;;;5052736;28;20442;-69
2023/05/01 12:01:39;;;;;;;3.47;2.80;;;;;;;;;;5051325;28;20434;-67
2023/05/01 12:04:07;;;;;;;4.43;3.60;;;;;;;;;;5052153;28;20454;-68
2023/05/01 12:06:42;;;;;;;4.20;3.30;;;;;;;;;;5052010;28;20512;-67
2023/05/01 12:09:10;;;;;;;3.70;2.90;;;;;;;;;;5052483;28;20544;-68
2023/05/01 12:11:38;;;;;;;3.97;3.00;;;;;;;;;;5051111;28;20450;-67
2023/05/01 12:14:06;;;;;;;4.63;2.90;;;;;;;;;;5052194;28;20458;-68
2023/05/01 12:16:33;;;;;;;3.97;2.90;;;;;;;;;;5052126;28;20957;-69
2023/05/01 12:19:00;;;;;;;5.50;3.40;;;;;;;;;;5052177;28;20447;-68
2023/05/01 12:21:27;;;;;;;4.57;2.90;;;;;;;;;;5051651;28;20495;-68
2023/05/01 12:23:58;;;;;;;3.50;2.80;;;;;;;;;;5051186;28;20926;-68
2023/05/01 12:26:26;;;;;;;4.53;3.57;;;;;;;;;;5052095;28;20927;-68
2023/05/01 12:28:56;;;;;;;3.37;2.80;;;;;;;;;;5050795;28;21033;-70
2023/05/01 12:31:23;;;;;;;4.13;2.90;;;;;;;;;;5051537;28;20450;-68
2023/05/01 12:33:54;;;;;;;6.30;3.67;;;;;;;;;;5050995;28;20473;-69
2023/05/01 12:36:24;;;;;;;4.00;3.30;;;;;;;;;;5051676;28;20798;-68
2023/05/01 12:39:03;;;;;;;6.83;3.30;;;;;;;;;;5050774;28;20500;-67
2023/05/01 12:41:34;;;;;;;4.20;3.40;;;;;;;;;;5050907;28;20478;-68
2023/05/01 12:44:01;;;;;;;4.23;2.83;;;;;;;;;;5051352;28;20446;-68
2023/05/01 12:46:28;;;;;;;5.10;3.40;;;;;;;;;;5051420;28;20446;-69
2023/05/01 12:48:56;;;;;;;4.70;3.90;;;;;;;;;;5051005;28;20461;-68
2023/05/01 12:51:23;;;;;;;4.50;3.10;;;;;;;;;;5051246;28;20559;-68
2023/05/01 12:53:56;;;;;;;3.97;3.37;;;;;;;;;;5050789;28;20529;-68
2023/05/01 12:56:25;;;;;;;4.47;3.77;;;;;;;;;;5051270;28;21272;-68
2023/05/01 12:58:54;;;;;;;4.37;3.20;;;;;;;;;;5050843;28;20541;-68
2023/05/01 13:01:25;;;;;;;4.67;3.53;;;;;;;;;;5050570;28;20517;-68
2023/05/01 13:03:56;;;;;;;4.53;3.43;;;;;;;;;;5051015;28;20844;-68
2023/05/01 13:06:32;;;;;;;3.80;3.30;;;;;;;;;;5050833;28;20884;-68
2023/05/01 13:09:07;;;;;;;5.27;3.80;;;;;;;;;;5051285;28;20446;-68
2023/05/01 13:11:36;;;;;;;5.33;3.40;;;;;;;;;;5037326;28;20449;-68
2023/05/01 13:14:07;;;;;;;4.50;2.73;;;;;;;;;;5050562;28;20467;-68
2023/05/01 13:16:34;;;;;;;4.47;3.07;;;;;;;;;;5050715;28;20442;-67
2023/05/01 13:19:04;;;;;;;3.00;2.70;;;;;;;;;;5050796;28;20455;-68
2023/05/01 13:21:32;;;;;;;3.90;2.87;;;;;;;;;;5050663;28;20512;-69
2023/05/01 13:24:00;;;;;;;5.23;3.33;;;;;;;;;;5050644;28;20461;-68
2023/05/01 13:26:29;;;;;;;4.20;2.67;;;;;;;;;;5050673;28;20648;-68
2023/05/01 13:28:58;;;;;;;5.50;3.33;;;;;;;;;;5049969;28;20458;-67
2023/05/01 13:31:26;;;;;;;5.43;3.07;;;;;;;;;;5050457;28;20458;-68
2023/05/01 13:33:54;;;;;;;3.37;2.57;;;;;;;;;;5050143;28;21312;-69
2023/05/01 13:36:22;;;;;;;3.30;2.30;;;;;;;;;;5050672;28;20446;-69
2023/05/01 13:38:50;;;;;;;4.03;3.00;;;;;;;;;;5049476;28;20931;-68
2023/05/01 13:41:18;;;;;;;3.93;3.20;;;;;;;;;;5049852;28;20560;-68
2023/05/01 13:43:45;;;;;;;4.20;2.93;;;;;;;;;;5049699;28;20442;-68
2023/05/01 13:46:14;;;;;;;4.50;3.37;;;;;;;;;;5051047;28;20466;-69
2023/05/01 13:48:41;;;;;;;5.43;3.50;;;;;;;;;;5049945;28;20935;-68
2023/05/01 13:51:09;;;;;;;5.63;3.90;;;;;;;;;;5050465;28;20833;-68
2023/05/01 13:53:36;;;;;;;5.00;3.30;;;;;;;;;;5050105;28;20793;-68
2023/05/01 13:56:04;;;;;;;6.00;4.00;;;;;;;;;;5051031;28;20473;-68
2023/05/01 13:58:31;;;;;;;4.53;3.67;;;;;;;;;;5050541;28;20809;-68
2023/05/01 14:00:59;;;;;;;5.33;4.80;;;;;;;;;;5050057;28;20575;-69
2023/05/01 14:03:27;;;;;;;5.43;4.90;;;;;;;;;;5050569;28;20798;-68
2023/05/01 14:05:54;;;;;;;7.00;5.50;;;;;;;;;;5050022;28;20454;-68
2023/05/01 14:08:22;;;;;;;5.70;4.63;;;;;;;;;;5050619;28;20450;-68
2023/05/01 14:10:49;;;;;;;6.03;4.30;;;;;;;;;;5049376;28;20454;-68
2023/05/01 14:13:18;;;;;;;7.10;4.80;;;;;;;;;;5049984;28;20931;-68
2023/05/01 14:15:45;;;;;;;6.90;4.97;;;;;;;;;;5049381;28;20449;-67
2023/05/01 14:18:15;;;;;;;6.07;4.40;;;;;;;;;;5052423;28;20481;-68
2023/05/01 14:20:45;;;;;;;6.73;4.13;;;;;;;;;;5053487;28;20488;-68
2023/05/01 14:23:12;;;;;;;5.80;4.60;;;;;;;;;;5054211;28;20461;-68
2023/05/01 14:25:40;;;;;;;6.23;3.97;;;;;;;;;;5053627;28;20496;-67
2023/05/01 14:28:07;;;;;;;7.73;4.20;;;;;;;;;;5054052;28;20507;-68
2023/05/01 14:30:37;;;;;;;5.00;3.93;;;;;;;;;;5053098;28;20485;-67
2023/05/01 14:33:04;;;;;;;5.63;3.90;;;;;;;;;;5053825;28;20537;-68
2023/05/01 14:35:32;;;;;;;4.73;3.43;;;;;;;;;;5054001;28;20492;-68
2023/05/01 14:38:05;;;;;;;4.37;3.63;;;;;;;;;;5053312;28;20442;-68